createdAt,value
2019-05-29T00:03:25.297Z,15.65
2019-05-29T00:08:27.400Z,15.53
2019-05-29T00:13:28.741Z,15.56
2019-05-29T00:18:30.125Z,15.53
2019-05-29T00:23:31.509Z,15.47
2019-05-29T00:28:32.789Z,15.38
2019-05-29T00:33:34.067Z,15.34
2019-05-29T00:38:35.441Z,15.36
2019-05-29T00:43:36.810Z,15.20
2019-05-29T00:48:38.185Z,15.24
2019-05-29T00:53:40.333Z,15.13
2019-05-29T00:58:41.733Z,15.12
2019-05-29T01:03:43.096Z,14.91
2019-05-29T01:08:44.408Z,14.77
2019-05-29T01:13:45.748Z,14.91
2019-05-29T01:18:47.113Z,14.93
2019-05-29T01:23:48.433Z,14.70
2019-05-29T01:28:49.833Z,14.85
2019-05-29T01:33:51.202Z,14.53
2019-05-29T01:38:52.569Z,14.40
2019-05-29T01:43:53.925Z,14.58
2019-05-29T01:48:56.031Z,14.71
2019-05-29T01:53:57.356Z,14.70
2019-05-29T01:58:58.745Z,14.75
2019-05-29T02:04:00.142Z,14.69
2019-05-29T02:09:01.534Z,14.63
2019-05-29T02:14:02.906Z,14.47
2019-05-29T02:19:04.301Z,14.49
2019-05-29T02:24:06.362Z,14.19
2019-05-29T02:29:07.825Z,14.21
2019-05-29T02:34:09.202Z,14.12
2019-05-29T02:39:11.299Z,14.14
2019-05-29T02:44:12.596Z,13.75
2019-05-29T02:49:13.970Z,13.86
2019-05-29T02:54:15.334Z,13.81
2019-05-29T02:59:16.725Z,13.81
2019-05-29T03:04:18.143Z,13.69
2019-05-29T03:09:19.486Z,13.87
2019-05-29T03:14:20.928Z,13.83
2019-05-29T03:19:23.902Z,13.73
2019-05-29T03:24:24.574Z,13.73
2019-05-29T03:29:26.228Z,13.78
2019-05-29T03:34:30.746Z,14.10
2019-05-29T03:39:30.370Z,13.72
2019-05-29T03:44:30.892Z,13.58
2019-05-29T03:49:33.196Z,14.08
2019-05-29T03:54:35.311Z,13.97
2019-05-29T03:59:35.926Z,13.84
2019-05-29T04:04:38.017Z,13.74
2019-05-29T04:09:37.552Z,13.89
2019-05-29T04:14:38.938Z,13.87
2019-05-29T04:19:40.321Z,13.77
2019-05-29T04:24:42.406Z,13.34
2019-05-29T04:29:43.757Z,13.32
2019-05-29T04:34:45.883Z,13.53
2019-05-29T04:39:47.336Z,13.80
2019-05-29T04:44:48.674Z,14.03
2019-05-29T04:49:50.827Z,13.64
2019-05-29T04:54:52.163Z,13.96
2019-05-29T04:59:53.444Z,13.74
2019-05-29T05:04:54.852Z,14.07
2019-05-29T05:09:56.953Z,14.50
2019-05-29T05:14:58.551Z,14.54
2019-05-29T05:20:00.157Z,14.02
2019-05-29T05:25:01.583Z,14.12
2019-05-29T05:30:02.927Z,14.07
2019-05-29T05:35:05.312Z,13.94
2019-05-29T05:40:06.713Z,14.42
2019-05-29T05:45:08.159Z,14.69
2019-05-29T05:50:09.577Z,14.29
2019-05-29T05:55:11.074Z,14.07
2019-05-29T06:00:12.469Z,14.30
2019-05-29T06:05:13.835Z,14.55
2019-05-29T06:10:15.273Z,14.22
2019-05-29T06:15:16.626Z,14.17
2019-05-29T06:20:18.021Z,14.04
2019-05-29T06:25:19.384Z,14.58
2019-05-29T06:30:20.801Z,14.23
2019-05-29T06:35:22.205Z,15.28
2019-05-29T06:40:27.577Z,14.69
2019-05-29T06:45:29.875Z,15.03
2019-05-29T06:50:31.413Z,15.22
2019-05-29T06:55:32.792Z,15.16
2019-05-29T07:00:35.633Z,14.74
2019-05-29T07:05:35.660Z,14.80
2019-05-29T07:10:38.381Z,14.88
2019-05-29T07:15:38.670Z,14.81
2019-05-29T07:20:40.642Z,14.59
2019-05-29T07:25:41.296Z,14.47
2019-05-29T07:30:47.309Z,15.11
2019-05-29T07:35:44.098Z,15.37
2019-05-29T07:40:47.717Z,15.11
2019-05-29T07:45:48.127Z,14.66
2019-05-29T07:50:48.543Z,14.83
2019-05-29T07:55:49.872Z,14.65
2019-05-29T08:01:09.898Z,14.94
2019-05-29T08:05:53.375Z,15.05
2019-05-29T08:10:54.775Z,14.95
2019-05-29T08:16:02.654Z,15.40
2019-05-29T08:20:58.373Z,15.53
2019-05-29T08:25:59.673Z,15.89
2019-05-29T08:31:01.776Z,16.80
2019-05-29T08:36:03.179Z,15.54
2019-05-29T08:41:05.976Z,15.88
2019-05-29T08:46:05.946Z,15.62
2019-05-29T08:51:07.381Z,16.17
2019-05-29T08:56:08.710Z,16.23
2019-05-29T09:01:10.083Z,15.60
2019-05-29T09:06:13.608Z,15.73
2019-05-29T09:11:12.821Z,16.19
2019-05-29T09:16:14.161Z,16.22
2019-05-29T09:21:17.173Z,16.30
2019-05-29T09:26:22.150Z,16.82
2019-05-29T09:31:18.658Z,16.27
2019-05-29T09:36:20.868Z,16.51
2019-05-29T09:41:23.403Z,17.06
2019-05-29T09:46:23.829Z,17.06
2019-05-29T09:51:24.844Z,16.60
2019-05-29T09:56:26.210Z,16.46
2019-05-29T10:01:27.625Z,16.30
2019-05-29T10:06:28.908Z,17.08
2019-05-29T10:11:30.971Z,16.44
2019-05-29T10:16:32.359Z,16.95
2019-05-29T10:21:40.625Z,17.63
2019-05-29T10:26:35.820Z,18.13
2019-05-29T10:31:37.200Z,16.43
2019-05-29T10:36:38.553Z,16.61
2019-05-29T10:41:39.852Z,16.44
2019-05-29T10:46:41.190Z,16.51
2019-05-29T10:51:58.105Z,16.80
2019-05-29T10:56:44.711Z,17.07
2019-05-29T11:01:45.292Z,16.55
2019-05-29T11:06:47.898Z,16.74
2019-05-29T11:11:48.403Z,18.40
2019-05-29T11:16:50.854Z,17.01
2019-05-29T11:21:51.737Z,17.51
2019-05-29T11:26:52.540Z,17.55
2019-05-29T11:31:54.978Z,17.59
2019-05-29T11:36:54.907Z,17.64
2019-05-29T11:41:56.855Z,17.19
2019-05-29T11:46:58.171Z,19.27
2019-05-29T11:52:22.828Z,19.58
2019-05-29T11:57:00.290Z,17.71
2019-05-29T12:02:03.443Z,17.94
2019-05-29T12:07:03.046Z,17.94
2019-05-29T12:12:04.409Z,17.73
2019-05-29T12:17:05.758Z,18.12
2019-05-29T12:22:07.082Z,17.89
2019-05-29T12:27:09.186Z,18.61
2019-05-29T12:32:12.144Z,18.26
2019-05-29T12:37:12.397Z,17.64
2019-05-29T12:42:13.814Z,18.23
2019-05-29T12:47:15.145Z,18.92
2019-05-29T12:52:16.467Z,18.45
2019-05-29T12:57:17.800Z,18.53
2019-05-29T13:02:19.136Z,18.32
2019-05-29T13:07:20.479Z,19.10
2019-05-29T13:12:21.903Z,19.14
2019-05-29T13:17:23.970Z,19.41
2019-05-29T13:22:25.287Z,19.78
2019-05-29T13:27:27.340Z,19.69
2019-05-29T13:32:28.655Z,19.71
2019-05-29T13:37:30.008Z,19.74
2019-05-29T13:42:32.104Z,19.97
2019-05-29T13:47:33.561Z,19.64
2019-05-29T13:52:35.658Z,19.72
2019-05-29T13:57:39.721Z,19.25
2019-05-29T14:02:38.373Z,18.52
2019-05-29T14:07:39.926Z,18.43
2019-05-29T14:12:41.313Z,17.90
2019-05-29T14:17:43.452Z,18.06
2019-05-29T14:22:44.866Z,18.29
2019-05-29T14:27:46.213Z,18.35
2019-05-29T14:32:48.270Z,18.44
2019-05-29T14:37:50.521Z,18.63
2019-05-29T14:42:52.008Z,18.83
2019-05-29T14:47:53.390Z,18.87
2019-05-29T14:52:54.763Z,18.85
2019-05-29T14:57:56.809Z,19.36
2019-05-29T15:02:58.172Z,20.48
2019-05-29T15:07:59.574Z,18.95
2019-05-29T15:13:01.691Z,19.29
2019-05-29T15:18:03.128Z,18.99
2019-05-29T15:23:05.163Z,19.33
2019-05-29T15:28:06.159Z,19.04
2019-05-29T15:33:08.458Z,19.29
2019-05-29T15:38:10.668Z,19.58
2019-05-29T15:43:10.903Z,20.26
2019-05-29T15:48:13.099Z,20.17
2019-05-29T15:53:23.322Z,20.20
2019-05-29T15:58:24.654Z,20.43
2019-05-29T16:08:38.376Z,19.77
2019-05-29T16:13:40.506Z,20.27
2019-05-29T16:18:41.836Z,19.48
2019-05-29T16:23:43.901Z,19.74
2019-05-29T16:28:45.218Z,18.53
2019-05-29T16:33:46.665Z,19.12
2019-05-29T16:38:48.073Z,18.57
2019-05-29T16:43:49.502Z,18.52
2019-05-29T16:48:51.010Z,18.38
2019-05-29T16:53:52.326Z,19.02
2019-05-29T16:58:53.647Z,19.14
2019-05-29T17:03:55.030Z,19.39
2019-05-29T17:08:56.328Z,19.07
2019-05-29T17:13:57.676Z,18.66
2019-05-29T17:18:59.740Z,19.02
2019-05-29T17:24:01.796Z,18.84
2019-05-29T17:29:03.124Z,19.03
2019-05-29T17:34:04.441Z,18.48
2019-05-29T17:39:05.796Z,19.05
2019-05-29T17:44:07.270Z,18.99
2019-05-29T17:49:08.567Z,19.11
2019-05-29T17:54:10.010Z,19.14
2019-05-29T17:59:12.121Z,18.98
2019-05-29T18:04:13.477Z,18.74
2019-05-29T18:09:14.870Z,18.80
2019-05-29T18:14:17.384Z,18.68
2019-05-29T18:19:23.695Z,18.80
2019-05-29T18:24:28.070Z,18.73
2019-05-29T18:29:30.730Z,18.73
2019-05-29T18:34:35.463Z,18.66
2019-05-29T18:39:39.238Z,18.69
2019-05-29T18:44:41.336Z,18.76
2019-05-29T18:49:45.905Z,18.73
2019-05-29T18:54:49.266Z,18.76
2019-05-29T18:59:52.628Z,18.85
2019-05-29T19:04:54.548Z,18.84
2019-05-29T19:09:56.706Z,18.86
2019-05-29T19:15:02.276Z,18.77
2019-05-29T19:20:06.376Z,18.72
2019-05-29T19:25:12.516Z,18.58
2019-05-29T19:30:14.674Z,18.60
2019-05-29T19:35:18.704Z,18.56
2019-05-29T19:40:22.088Z,18.50
2019-05-29T19:45:36.819Z,18.54
2019-05-29T19:50:43.313Z,18.48
2019-05-29T19:55:47.048Z,18.48
2019-05-29T20:00:48.425Z,18.38
2019-05-29T20:05:50.493Z,18.39
2019-05-29T20:10:51.902Z,18.40
2019-05-29T20:15:53.225Z,18.40
2019-05-29T20:20:55.280Z,18.38
2019-05-29T20:25:56.593Z,18.27
2019-05-29T20:30:57.916Z,18.25
2019-05-29T20:35:59.329Z,18.26
2019-05-29T20:41:00.878Z,18.19
2019-05-29T20:46:03.024Z,18.19
2019-05-29T20:51:04.424Z,18.15
2019-05-29T20:56:06.573Z,18.18
2019-05-29T21:01:07.926Z,18.19
2019-05-29T21:06:09.468Z,18.23
2019-05-29T21:11:10.789Z,18.13
2019-05-29T21:16:12.138Z,18.17
2019-05-29T21:21:13.472Z,18.18
2019-05-29T21:26:14.837Z,18.22
2019-05-29T21:31:16.226Z,18.25
2019-05-29T21:36:17.592Z,18.14
2019-05-29T21:41:19.001Z,18.04
2019-05-29T21:46:21.137Z,17.93
2019-05-29T21:51:22.515Z,17.76
2019-05-29T21:56:23.858Z,17.69
2019-05-29T22:01:25.282Z,17.67
2019-05-29T22:06:26.606Z,17.65
2019-05-29T22:11:27.945Z,17.48
2019-05-29T22:16:29.319Z,17.33
2019-05-29T22:21:30.677Z,17.25
2019-05-29T22:26:32.026Z,17.23
2019-05-29T22:31:34.152Z,17.20
2019-05-29T22:36:35.545Z,16.96
2019-05-29T22:41:36.894Z,16.96
2019-05-29T22:46:38.231Z,16.99
2019-05-29T22:51:39.560Z,16.68
2019-05-29T22:56:40.892Z,16.74
2019-05-29T23:01:42.333Z,16.45
2019-05-29T23:06:43.666Z,16.46
2019-05-29T23:11:45.048Z,16.43
2019-05-29T23:16:46.503Z,16.46
2019-05-29T23:21:47.865Z,16.45
2019-05-29T23:26:49.282Z,16.48
2019-05-29T23:31:50.675Z,16.54
2019-05-29T23:36:52.955Z,16.52
2019-05-29T23:41:55.226Z,16.49
2019-05-29T23:46:57.535Z,16.66
2019-05-29T23:51:59.619Z,16.65
2019-05-29T23:57:00.058Z,16.61
